Terminal Aerodrome Forecast
Issued by NWS Portland, OR

Home | Current Version | Previous Version | Text Only | Print | Product List | Glossary On
Versions: 1 2 3 4 5 6 7 8 9 10 11 12 13 14 15 16 17
000
FTUS46 KPQR 252325
TAFTTD
TAF
KTTD 252325Z 2600/2624 19018G32KT P6SM -SHRA SCT025 OVC050
      TEMPO 2600/2602 4SM SHRA BKN025 OVC040
     FM260200 21017G28KT P6SM -SHRA BKN025 OVC050
     FM260500 22011G22KT P6SM -SHRA BKN030 BKN050
     FM261000 22007KT P6SM -SHRA BKN030 OVC050=

USA.gov is the U.S. government's official web portal to all federal, state and local government web resources and services.